SCCI 230400Z 15008KT 9999 FEW040 09/07 Q1007 NOSIG